Station: Mcarthur River Mine  

  Atmospheric Gas Attenuation - ITU Rec 676-11   ----------------- dB/100km -----------------
Date Time Temp RH % AH g/m3 Dew Point Wind Direction Speed kph Gust kph Barometer mB Rainfall Since 9am 24GHz 47GHz 76GHz 122GHz 134GHz 241GHz
08/05 12:00 29 34 9.77 11.6 17 26 1014.4 0 21.3 23.6 37.0 97.1 94.2 325.8
08/05 11:50 28.9 35 10 11.9 17 19 1014.5 0 21.8 23.9 37.8 99.3 97.0 335.3
08/05 11:40 28.1 36 9.84 11.6 22 28 1014.7 0 21.5 23.9 37.6 98.8 96.1 332.2
08/05 11:30 28.1 34 9.3 10.8 17 28 1014.8 0 20.4 23.1 35.8 93.9 90.0 310.9
08/05 11:20 27.7 34 9.1 10.4 22 28 1015 0 20.0 23.0 35.3 92.6 88.3 304.6
08/05 11:10 27.7 35 9.36 10.9 17 22 1015.2 0 20.5 23.3 36.2 95.0 91.2 314.9
08/05 11:00 27.5 34 9 10.2 20 32 1015.3 0 19.8 22.9 35.0 91.9 87.4 301.5
08/05 10:50 27.1 35 9.06 10.3 19 26 1015.5 0 19.9 23.1 35.4 92.9 88.5 305.4
08/05 10:40 26.9 35 8.96 10.2 17 20 1015.7 0 19.7 23.0 35.2 92.3 87.6 302.3
08/05 10:30 26.6 34 8.56 9.5 19 28 1015.7 0 18.9 22.5 33.9 89.0 83.5 287.7
08/05 10:20 26.3 35 8.66 9.6 13 17 1016 0 19.1 22.7 34.4 90.2 84.9 292.7
08/05 10:10 25.9 35 8.47 9.3 19 20 1015.9 0 18.8 22.6 33.9 88.9 83.2 286.7
08/05 10:00 25.6 34 8.09 8.6 20 30 1015.9 0 18.0 22.1 32.8 85.8 79.3 272.8
08/05 09:50 25.5 36 8.52 9.3 19 24 1016.1 0 18.9 22.7 34.3 89.8 84.2 290.1
08/05 09:40 25 36 8.29 8.9 22 28 1016.1 0 18.4 22.6 33.7 88.3 82.1 282.7
08/05 09:30 24.5 36 8.06 8.5 20 33 1016 0 18.0 22.4 33.1 86.7 80.0 275.3
08/05 09:20 24.4 37 8.23 8.8 22 28 1016.2 0 18.3 22.6 33.7 88.4 82.0 282.5
08/05 09:10 24.2 38 8.36 9 20 24 1016.1 0 18.6 22.8 34.3 89.8 83.7 288.3
08/05 09:00 23.6 37 7.87 8.1 20 32 1016.1 0 17.6 22.3 32.8 85.9 78.8 270.9
08/05 08:50 23.2 38 7.9 8.1 24 26 1016.1 0 17.7 22.4 33.1 86.6 79.5 273.4
08/05 08:40 22.9 39 7.97 8.2 22 24 1016.1 0 17.8 22.6 33.4 87.6 80.6 277.2
08/05 08:30 22.7 40 8.08 8.4 17 26 1015.9 0 18.1 22.8 33.9 88.8 82.0 282.3
08/05 08:20 22.3 41 8.1 8.4 15 19 1016 0 18.1 22.9 34.1 89.4 82.7 284.5
08/05 08:10 22 43 8.34 8.9 15 17 1015.9 0 18.7 23.4 35.1 92.0 85.8 295.3
08/05 08:00 21.5 44 8.3 8.7 13 17 1015.7 0 18.6 23.4 35.2 92.2 85.8 295.5
08/05 07:50 21.1 45 8.29 8.7 15 17 1015.7 0 18.6 23.5 35.3 92.6 86.2 296.5
08/05 07:40 20.9 46 8.38 8.9 9 11 1015.6 0 18.8 23.7 35.7 93.6 87.4 301.0
08/05 07:30 20.6 47 8.41 8.9 11 13 1015.4 0 18.9 23.8 36.0 94.3 88.1 303.3
08/05 07:20 20.3 48 8.44 8.9 9 11 1015.5 0 18.9 23.9 36.2 94.9 88.8 305.7
08/05 07:10 19.7 53 9 9.9 9 9 1015.3 0 20.1 24.9 38.6 101.2 96.3 332.0
08/05 07:00 19.4 52 8.68 9.3 7 11 1015.2 0 19.5 24.5 37.5 98.3 92.7 319.4
08/05 06:50 19.9 49 8.42 8.9 7 9 1015.1 0 18.9 24.0 36.3 95.2 89.0 306.3
08/05 06:40 20 49 8.47 9 7 9 1015 0 19.0 24.0 36.4 95.5 89.5 308.0
08/05 06:30 20 49 8.47 9 11 13 1014.9 0 19.0 24.0 36.4 95.5 89.5 308.0
08/05 06:20 20.1 49 8.52 9.1 11 13 1014.7 0 19.1 24.1 36.6 95.9 89.9 309.7
08/05 06:10 20.3 48 8.44 8.9 9 11 1014.6 0 18.9 23.9 36.2 94.8 88.7 305.5
08/05 06:00 20.4 48 8.49 9 11 17 1014.6 0 19.0 23.9 36.3 95.2 89.2 307.2
08/05 05:50 20.2 50 8.74 9.5 9 11 1014.7 0 19.6 24.4 37.3 97.9 92.5 318.6
08/05 05:40 20.5 49 8.72 9.4 9 11 1014.6 0 19.5 24.3 37.1 97.3 91.9 316.6
08/05 05:30 20.1 51 8.86 9.7 9 13 1014.5 0 19.8 24.6 37.8 99.2 94.1 324.1
08/05 05:20 20 52 8.99 9.9 9 9 1014.4 0 20.1 24.8 38.3 100.6 95.8 330.1
08/05 05:10 20.4 50 8.84 9.6 11 11 1014.5 0 19.8 24.5 37.6 98.6 93.5 322.1
08/05 05:00 20.6 50 8.95 9.8 9 13 1014.2 0 20.0 24.6 37.9 99.4 94.6 325.9
08/05 04:50 20.6 50 8.95 9.8 9 11 1014.3 0 20.0 24.6 37.9 99.5 94.6 325.9
08/05 04:40 20.8 49 8.87 9.7 9 11 1014.2 0 19.8 24.4 37.5 98.4 93.3 321.6
08/05 04:30 20.7 50 9 9.9 9 13 1014.1 0 20.1 24.6 38.0 99.8 95.0 327.6
08/05 04:20 19.2 59 9.73 11 7 9 1014.1 0 21.7 26.2 41.5 109.2 106.1 366.0
08/05 04:10 19.2 62 10.22 11.7 9 11 1014.1 0 22.8 26.9 43.5 114.3 112.4 388.1
08/05 04:00 19.6 59 9.96 11.4 7 11 1014.1 0 22.2 26.4 42.2 111.0 108.5 374.4
08/05 03:50 20.2 56 9.79 11.1 9 9 1014.1 0 21.8 26.0 41.3 108.4 105.5 364.1
08/05 03:40 20.8 52 9.41 10.6 7 9 1014 0 21.0 25.2 39.5 103.8 99.9 344.8
08/05 03:30 21.3 49 9.13 10.2 9 13 1014.1 0 20.3 24.6 38.2 100.3 95.9 330.7
08/05 03:20 21.3 49 9.13 10.2 11 13 1014.1 0 20.3 24.6 38.2 100.3 95.9 330.7
08/05 03:10 21.4 49 9.19 10.3 11 13 1014.1 0 20.5 24.7 38.4 100.8 96.5 332.8
08/05 03:00 21.6 49 9.29 10.4 11 13 1014.1 0 20.7 24.8 38.7 101.5 97.5 336.2
08/05 02:50 21.6 49 9.29 10.4 9 11 1014.1 0 20.7 24.8 38.7 101.5 97.5 336.2
08/05 02:40 21.7 49 9.35 10.5 9 11 1014.2 0 20.8 24.9 38.9 102.0 98.1 338.4
08/05 02:30 21 55 10.07 11.6 9 11 1014.2 0 22.3 26.2 41.9 110.2 107.9 372.7
08/05 02:20 21.8 49 9.4 10.6 9 11 1014.4 0 20.9 24.9 39.0 102.4 98.6 340.2
08/05 02:10 22 49 9.51 10.8 11 13 1014.4 0 21.1 25.0 39.3 103.2 99.7 344.0
08/05 02:00 21.7 52 9.92 11.4 9 13 1014.4 0 22.0 25.7 41.0 107.7 105.1 363.0
08/05 01:50 21.7 53 10.11 11.7 11 11 1014.5 0 22.4 26.0 41.7 109.7 107.5 371.3
08/05 01:40 20.7 63 11.34 13.4 9 11 1014.5 0 25.0 28.3 47.1 124.0 124.8 431.7
08/05 01:30 19.6 72 12.15 14.4 7 11 1014.5 0 26.8 30.0 51.1 134.7 137.6 476.2
08/05 01:20 19 77 12.55 14.9 7 9 1014.6 0 27.7 30.9 53.2 140.3 144.3 499.4
08/05 01:10 19.1 80 13.11 15.6 6 7 1014.6 0 28.9 31.8 55.6 146.5 152.0 526.4
08/05 01:00 19.4 75 12.51 14.9 6 6 1014.7 0 27.6 30.7 52.8 139.1 143.0 494.9
08/05 00:50 20.7 68 12.24 14.6 6 7 1014.7 0 26.9 29.8 50.8 133.8 136.9 473.8
08/05 00:40 21.5 64 12.07 14.4 7 9 1014.7 0 26.5 29.2 49.6 130.6 133.2 461.1
08/05 00:30 19 84 13.69 16.2 6 9 1014.8 0 30.2 32.9 58.2 153.5 160.6 556.4
08/05 00:20 19.2 83 13.68 16.2 6 6 1014.9 0 30.1 32.8 58.0 153.0 160.0 554.5
08/05 00:10 19.3 83 13.77 16.3 2 4 1014.8 0 30.3 32.9 58.3 153.9 161.1 558.3
08/05 00:00 19.3 82 13.6 16.2 4 7 1014.9 0 29.9 32.6 57.6 151.9 158.7 549.7
07/05 23:50 19.5 82 13.76 16.3 6 7 1015 0 30.3 32.8 58.1 153.4 160.6 556.4
07/05 23:40 19.8 80 13.66 16.3 4 6 1015 0 30.0 32.5 57.5 151.6 158.5 549.2
07/05 23:30 19.8 79 13.49 16.1 4 6 1014.9 0 29.7 32.2 56.7 149.6 156.0 540.6
07/05 23:20 20.2 77 13.46 16 4 6 1014.9 0 29.6 32.0 56.3 148.5 154.8 536.4
07/05 23:10 20.5 77 13.7 16.3 4 6 1014.9 0 30.1 32.3 57.1 150.7 157.6 546.2
07/05 23:00 20.6 76 13.6 16.2 6 9 1015 0 29.8 32.1 56.6 149.4 156.0 540.5
07/05 22:50 20.6 78 13.96 16.6 0 0 1015.1 0 30.6 32.8 58.2 153.6 161.1 558.5
07/05 22:40 20.2 81 14.16 16.8 0 0 1015 0 31.1 33.3 59.4 156.7 164.9 571.4
07/05 22:30 20 81 14 16.6 0 0 1015 0 30.7 33.1 58.8 155.2 163.0 564.8
07/05 22:20 20 82 14.17 16.8 0 0 1015 0 31.1 33.4 59.6 157.2 165.4 573.4
07/05 22:10 20.3 79 13.89 16.5 0 0 1015.1 0 30.5 32.8 58.1 153.3 160.8 557.2
07/05 22:00 20.3 79 13.89 16.5 0 0 1015.1 0 30.5 32.8 58.1 153.3 160.8 557.2
07/05 21:50 20.4 80 14.15 16.8 0 0 1015.1 0 31.0 33.2 59.2 156.2 164.3 569.5
07/05 21:40 20.6 77 13.78 16.4 0 0 1015.1 0 30.2 32.5 57.4 151.5 158.6 549.5
07/05 21:30 20.8 78 14.12 16.8 0 0 1015.1 0 30.9 33.0 58.7 155.0 163.0 565.0
07/05 21:20 20.8 78 14.12 16.8 0 0 1015 0 30.9 33.0 58.7 155.0 163.0 565.0
07/05 21:10 21 77 14.1 16.8 6 7 1015.1 0 30.9 32.9 58.5 154.4 162.3 562.6
07/05 21:00 21.2 76 14.08 16.8 0 0 1015.1 0 30.8 32.8 58.3 153.8 161.6 560.1
07/05 20:50 21.4 76 14.25 17 0 0 1015 0 31.2 33.0 58.9 155.3 163.6 567.1
07/05 20:40 21.6 74 14.03 16.8 0 0 1014.9 0 30.7 32.5 57.7 152.4 160.0 554.7
07/05 20:30 21.9 72 13.89 16.6 2 6 1014.8 0 30.4 32.1 56.9 150.2 157.4 545.6
07/05 20:20 22.4 68 13.5 16.2 4 6 1014.6 0 29.5 31.3 54.9 144.8 150.9 523.1
07/05 20:10 22.9 66 13.49 16.2 7 9 1014.5 0 29.4 31.1 54.5 143.7 149.8 519.3
07/05 20:00 23.2 64 13.3 16 7 7 1014.4 0 29.0 30.7 53.5 141.1 146.6 508.2
07/05 19:50 23.5 63 13.32 16.1 7 9 1014.3 0 29.0 30.6 53.4 140.7 146.3 507.2
07/05 19:40 23.8 62 13.34 16.1 9 9 1014.2 0 29.1 30.5 53.2 140.4 146.0 506.1
07/05 19:30 24.6 58 13.05 15.8 7 11 1014.1 0 28.4 29.8 51.5 135.8 140.6 487.5

Last Refresh: 08-May-2026 12:09:23

Bureau of Meteorology